KSEA/SEA METAR and TAF weather

Enter ICAO airport designator
Station Type Date Time Source
KSEA METAR 2019/10/20 18:53 UTC NOAA

KSEA 201853Z 14008KT 5SM -RA FEW016 BKN030 OVC039 10/06 A2998 RMK AO2 RAB00E33B51 SLP158 P0001 T01000061 $


Station Type Date Time Source
KSEA Decoded METAR 2019/10/20 18:53 UTC NOAA

SEATTLE-TACOMA INTERNATIONAL AIRPORT , WA, United States (KSEA) 47-27N 122-19W 136M
Oct 20, 2019 - 02:53 PM EDT / 2019.10.20 1853 UTC
Wind: from the SE (140 degrees) at 9 MPH (8 KT):0
Visibility: 5 mile(s):0
Sky conditions: overcast
Weather: light rain
Precipitation last hour: 0.01 inches
Temperature: 50.0 F (10.0 C)
Dew Point: 43.0 F (6.1 C)
Relative Humidity: 76%
Pressure (altimeter): 29.98 in. Hg (1015 hPa)
ob: KSEA 201853Z 14008KT 5SM -RA FEW016 BKN030 OVC039 10/06 A2998 RMK AO2 RAB00E33B51 SLP158 P0001 T01000061
cycle: 19

Station Type Date Time Source
KSEA TAF 2019/10/20 18:30 UTC NOAA

TAF KSEA 201728Z 2018/2124 15009KT 6SM -RA SCT020 OVC050
FM202000 15011KT 6SM -RA BR OVC020
FM210000 19012KT P6SM VCSH BKN025 BKN050
FM210600 18008KT P6SM BKN015 BKN050
FM211300 19008KT P6SM VCSH OVC015
FM211500 17011KT 5SM -RA OVC015

Example: see airport list